createdAt,value
2023-05-19T00:00:57.780Z,9.0060
2023-05-19T00:02:00.548Z,8.9314
2023-05-19T00:03:03.431Z,9.0510
2023-05-19T00:04:06.253Z,8.9862
2023-05-19T00:05:08.311Z,8.9652
2023-05-19T00:06:10.403Z,8.9380
2023-05-19T00:07:13.032Z,9.0515
2023-05-19T00:08:15.976Z,9.1142
2023-05-19T00:20:40.034Z,9.1140
2023-05-19T00:21:42.182Z,9.1567
2023-05-19T00:22:44.266Z,9.1379
2023-05-19T00:24:48.281Z,9.0800
2023-05-19T00:25:50.353Z,9.1073
2023-05-19T00:26:52.473Z,9.0091
2023-05-19T00:27:54.537Z,9.1073
2023-05-19T00:28:56.621Z,9.1629
2023-05-19T00:29:59.513Z,9.0984
2023-05-19T00:31:02.804Z,9.0110
2023-05-19T00:34:06.631Z,9.0220
2023-05-19T00:41:19.520Z,8.9391
2023-05-19T00:42:22.229Z,8.8810
2023-05-19T00:43:24.860Z,8.9837
2023-05-19T00:44:28.157Z,8.8671
2023-05-19T00:47:42.720Z,8.9726
2023-05-19T00:55:51.497Z,8.7380
2023-05-19T00:56:53.568Z,8.7592
2023-05-19T00:57:55.649Z,8.7579
2023-05-19T00:58:58.434Z,8.7097
2023-05-19T01:00:00.603Z,8.7524
2023-05-19T01:01:02.722Z,8.8408
2023-05-19T01:02:04.785Z,8.8169
2023-05-19T01:04:08.907Z,8.8905
2023-05-19T01:05:11.033Z,8.8889
2023-05-19T01:06:13.136Z,8.9132
2023-05-19T01:07:15.211Z,8.8675
2023-05-19T01:08:17.304Z,8.8584
2023-05-19T01:09:19.390Z,8.8206
2023-05-19T01:10:22.069Z,8.7363
2023-05-19T01:11:24.913Z,8.6914
2023-05-19T01:12:26.953Z,8.7406
2023-05-19T01:13:29.642Z,8.7769
2023-05-19T01:14:31.699Z,8.7522
2023-05-19T01:15:34.488Z,8.7219
2023-05-19T01:16:36.617Z,8.6739
2023-05-19T01:17:39.403Z,8.6332
2023-05-19T01:18:42.107Z,8.6172
2023-05-19T01:19:44.277Z,8.6165
2023-05-19T01:20:46.345Z,8.5686
2023-05-19T01:21:48.416Z,8.5546
2023-05-19T01:22:50.485Z,8.4005
2023-05-19T01:23:53.634Z,8.3173
2023-05-19T01:24:52.840Z,8.4019
2023-05-19T01:25:56.252Z,8.2841
2023-05-19T01:28:00.124Z,8.2291
2023-05-19T01:29:02.897Z,8.3060
2023-05-19T01:30:04.954Z,8.3543
2023-05-19T01:31:07.032Z,8.3207
2023-05-19T01:33:11.720Z,8.1524
2023-05-19T01:34:14.610Z,8.1216
2023-05-19T01:35:16.734Z,8.1637
2023-05-19T01:36:18.817Z,8.1619
2023-05-19T01:37:21.137Z,8.1751
2023-05-19T01:38:23.186Z,8.2757
2023-05-19T01:39:25.283Z,8.1863
2023-05-19T01:41:29.969Z,8.1572
2023-05-19T01:42:32.107Z,8.1203
2023-05-19T01:43:34.216Z,8.1229
2023-05-19T01:44:36.305Z,8.1754
2023-05-19T01:45:38.912Z,8.2536
2023-05-19T01:46:41.023Z,8.1048
2023-05-19T01:47:43.136Z,8.1484
2023-05-19T01:48:45.185Z,8.2068
2023-05-19T01:49:48.408Z,8.2129
2023-05-19T01:50:49.012Z,8.1739
2023-05-19T01:52:50.715Z,8.2413
2023-05-19T01:53:53.675Z,8.1821
2023-05-19T01:54:56.446Z,8.0734
2023-05-19T01:55:58.548Z,8.0958
2023-05-19T01:57:01.234Z,8.0986
2023-05-19T01:58:03.390Z,8.0891
2023-05-19T01:59:05.501Z,8.2634
2023-05-19T02:00:07.549Z,8.1525
2023-05-19T02:01:10.433Z,8.1272
2023-05-19T02:02:13.156Z,8.0513
2023-05-19T02:03:15.952Z,8.0543
2023-05-19T02:04:18.089Z,8.0935
2023-05-19T02:05:20.116Z,8.2073
2023-05-19T02:06:22.917Z,8.1683
2023-05-19T02:07:25.636Z,8.1215
2023-05-19T02:08:27.730Z,8.1610
2023-05-19T02:09:29.795Z,8.2534
2023-05-19T02:10:33.177Z,8.1209
2023-05-19T02:11:33.539Z,8.1873
2023-05-19T02:12:34.565Z,8.1845
2023-05-19T02:13:36.650Z,8.2547
2023-05-19T02:14:39.422Z,8.2514
2023-05-19T02:15:48.614Z,8.1799
2023-05-19T02:22:52.630Z,8.1069
2023-05-19T02:25:55.627Z,8.1154
2023-05-19T02:26:57.694Z,8.1099
2023-05-19T02:27:59.799Z,8.0282
2023-05-19T02:29:01.807Z,8.1294
2023-05-19T02:30:03.876Z,8.1352
2023-05-19T02:31:07.212Z,8.1534
2023-05-19T02:42:24.863Z,8.1388
2023-05-19T02:44:29.587Z,8.0813
2023-05-19T02:45:32.482Z,8.0888
2023-05-19T02:46:34.585Z,8.1015
2023-05-19T02:47:37.314Z,8.0894
2023-05-19T02:48:40.135Z,8.1058
2023-05-19T02:49:43.892Z,8.1261
2023-05-19T02:50:43.732Z,8.2088
2023-05-19T02:51:45.980Z,8.2109
2023-05-19T02:52:48.701Z,8.1226
2023-05-19T02:53:51.499Z,8.1521
2023-05-19T02:54:54.274Z,8.2007
2023-05-19T02:55:57.029Z,8.0311
2023-05-19T02:56:59.068Z,8.0921
2023-05-19T02:58:01.181Z,8.1248
2023-05-19T02:59:03.241Z,8.0527
2023-05-19T03:00:06.044Z,8.0563
2023-05-19T03:01:06.245Z,8.0879
2023-05-19T03:02:08.493Z,8.0814
2023-05-19T03:04:13.294Z,8.0522
2023-05-19T03:05:16.038Z,8.0142
2023-05-19T03:06:18.942Z,8.0833
2023-05-19T03:09:26.019Z,8.0788
2023-05-19T03:10:28.097Z,8.0195
2023-05-19T03:11:31.159Z,8.0292
2023-05-19T03:14:34.674Z,8.0472
2023-05-19T03:16:39.676Z,8.0022
2023-05-19T03:19:43.378Z,7.9861
2023-05-19T03:20:45.471Z,8.0587
2023-05-19T03:21:48.435Z,8.0880
2023-05-19T03:22:48.458Z,7.9990
2023-05-19T03:25:52.912Z,7.9013
2023-05-19T03:30:02.426Z,7.8262
2023-05-19T03:31:02.970Z,7.7785
2023-05-19T03:32:05.066Z,7.7790
2023-05-19T03:39:18.904Z,7.5486
2023-05-19T03:40:21.573Z,7.5764
2023-05-19T03:41:23.645Z,7.4673
2023-05-19T03:42:26.335Z,7.5723
2023-05-19T03:43:29.037Z,7.5957
2023-05-19T03:44:31.891Z,7.5479
2023-05-19T03:45:34.687Z,7.5385
2023-05-19T03:46:37.393Z,7.5410
2023-05-19T03:48:42.159Z,7.5820
2023-05-19T03:49:44.919Z,7.6207
2023-05-19T03:50:47.658Z,7.5572
2023-05-19T03:51:49.746Z,7.5724
2023-05-19T03:52:57.571Z,7.4834
2023-05-19T03:53:54.433Z,7.5004
2023-05-19T03:54:57.064Z,7.3992
2023-05-19T03:55:59.192Z,7.4053
2023-05-19T03:58:03.324Z,7.3185
2023-05-19T03:59:05.465Z,7.2791
2023-05-19T04:01:10.756Z,7.3922
2023-05-19T04:02:12.904Z,7.3869
2023-05-19T04:03:15.185Z,7.3649
2023-05-19T04:05:19.616Z,7.3912
2023-05-19T04:06:21.740Z,7.3897
2023-05-19T04:07:23.857Z,7.4112
2023-05-19T04:08:25.972Z,7.4431
2023-05-19T04:09:28.090Z,7.5391
2023-05-19T04:10:31.115Z,7.5092
2023-05-19T04:18:44.900Z,7.6434
2023-05-19T04:19:47.708Z,7.6557
2023-05-19T04:20:49.877Z,7.5572
2023-05-19T04:21:51.995Z,7.5611
2023-05-19T04:22:54.610Z,7.7100
2023-05-19T04:23:56.698Z,7.7503
2023-05-19T04:24:59.532Z,7.7821
2023-05-19T04:26:02.505Z,7.7272
2023-05-19T04:34:17.067Z,8.0101
2023-05-19T04:35:19.213Z,8.1300
2023-05-19T04:36:21.379Z,8.0879
2023-05-19T04:37:24.059Z,8.3387
2023-05-19T04:38:26.819Z,8.3575
2023-05-19T04:39:28.991Z,8.3769
2023-05-19T04:40:31.384Z,8.2328
2023-05-19T04:41:33.744Z,8.2451
2023-05-19T04:42:38.960Z,8.3138
2023-05-19T04:43:38.816Z,8.3379
2023-05-19T04:44:41.613Z,8.4691
2023-05-19T04:45:44.347Z,8.4568
2023-05-19T04:46:47.387Z,8.6047
2023-05-19T04:48:49.822Z,8.7771
2023-05-19T04:52:56.492Z,8.8585
2023-05-19T04:53:59.261Z,9.1215
2023-05-19T04:55:02.062Z,9.1933
2023-05-19T04:56:04.179Z,9.2416
2023-05-19T04:58:08.920Z,9.4111
2023-05-19T05:02:15.333Z,9.4804
2023-05-19T05:03:18.274Z,9.5837
2023-05-19T05:07:26.398Z,9.7283
2023-05-19T05:14:39.627Z,10.1545
2023-05-19T05:15:39.700Z,10.1438
2023-05-19T05:16:41.868Z,10.3068
2023-05-19T05:17:44.594Z,10.4264
2023-05-19T05:18:46.796Z,10.4303
2023-05-19T05:19:48.936Z,10.5390
2023-05-19T05:20:51.096Z,10.5296
2023-05-19T05:21:53.190Z,10.6732
2023-05-19T05:22:55.276Z,10.5805
2023-05-19T05:23:57.653Z,10.6067
2023-05-19T05:24:59.787Z,10.6575
2023-05-19T05:26:01.878Z,10.6978
2023-05-19T05:27:04.656Z,10.6865
2023-05-19T05:28:07.771Z,10.6830
2023-05-19T05:43:39.354Z,9.8555
2023-05-19T05:44:42.135Z,9.8211
2023-05-19T05:45:44.956Z,9.8421
2023-05-19T05:46:47.068Z,9.8342
2023-05-19T05:47:49.196Z,9.8686
2023-05-19T05:48:51.688Z,9.8243
2023-05-19T05:49:54.422Z,9.7185
2023-05-19T05:50:57.144Z,9.7707
2023-05-19T05:53:02.678Z,9.7061
2023-05-19T05:54:04.771Z,9.7850
2023-05-19T05:55:06.902Z,9.7748
2023-05-19T05:56:09.663Z,9.7308
2023-05-19T05:57:11.817Z,9.6860
2023-05-19T05:58:14.652Z,9.6859
2023-05-19T05:59:16.754Z,9.7169
2023-05-19T06:00:18.825Z,9.6710
2023-05-19T06:01:21.572Z,9.6806
2023-05-19T06:02:23.850Z,9.7524
2023-05-19T06:03:26.097Z,9.5706
2023-05-19T06:05:30.230Z,9.5436
2023-05-19T06:06:32.978Z,9.5978
2023-05-19T06:07:35.110Z,9.5413
2023-05-19T06:08:37.238Z,9.4790
2023-05-19T06:10:00.984Z,9.5232
2023-05-19T06:17:55.487Z,9.3929
2023-05-19T06:18:58.393Z,9.4152
2023-05-19T06:26:11.941Z,9.2570
2023-05-19T06:27:14.683Z,9.3470
2023-05-19T06:28:17.656Z,9.3256
2023-05-19T06:30:19.944Z,9.2491
2023-05-19T06:31:22.921Z,9.3680
2023-05-19T06:33:25.507Z,9.3139
2023-05-19T06:34:25.903Z,9.3680
2023-05-19T06:35:28.025Z,9.3657
2023-05-19T06:37:32.653Z,9.2758
2023-05-19T06:38:35.440Z,9.3304
2023-05-19T06:39:38.130Z,9.2992
2023-05-19T06:40:40.242Z,9.3701
2023-05-19T06:41:43.103Z,9.2641
2023-05-19T06:42:45.209Z,9.3268
2023-05-19T06:43:47.322Z,9.3220
2023-05-19T06:44:50.953Z,9.3954
2023-05-19T06:45:51.316Z,9.3695
2023-05-19T06:48:55.437Z,9.3514
2023-05-19T06:49:58.562Z,9.3503
2023-05-19T06:51:59.781Z,9.3751
2023-05-19T06:53:01.977Z,9.4179
2023-05-19T06:54:04.172Z,9.3053
2023-05-19T06:55:06.514Z,9.3816
2023-05-19T06:56:14.475Z,9.4270
2023-05-19T06:57:33.209Z,9.4711
2023-05-19T07:04:23.645Z,9.5262
2023-05-19T07:05:26.503Z,9.5368
2023-05-19T07:06:28.608Z,9.5471
2023-05-19T07:07:30.689Z,9.6146
2023-05-19T07:08:32.983Z,9.6457
2023-05-19T07:09:36.217Z,9.7069
2023-05-19T07:10:39.186Z,9.8496
2023-05-19T07:11:39.643Z,9.8483
2023-05-19T07:12:41.739Z,9.9332
2023-05-19T07:13:44.167Z,10.0270
2023-05-19T07:14:46.909Z,10.2037
2023-05-19T07:15:49.613Z,10.3198
2023-05-19T07:16:51.910Z,10.3152
2023-05-19T07:17:54.383Z,10.4358
2023-05-19T07:18:55.133Z,10.3623
2023-05-19T07:19:58.131Z,10.2792
2023-05-19T07:27:11.776Z,10.6358
2023-05-19T07:28:12.200Z,10.7607
2023-05-19T07:31:17.629Z,11.0755
2023-05-19T07:32:19.915Z,11.1715
2023-05-19T07:33:21.971Z,11.2206
2023-05-19T07:34:24.330Z,11.2562
2023-05-19T07:35:26.433Z,11.1744
2023-05-19T07:36:29.144Z,11.2020
2023-05-19T07:37:31.905Z,11.0955
2023-05-19T07:38:34.718Z,11.1653
2023-05-19T07:41:41.422Z,11.3710
2023-05-19T07:42:44.557Z,11.2439
2023-05-19T07:44:46.465Z,11.4004
2023-05-19T07:45:48.584Z,11.5028
2023-05-19T07:46:51.026Z,11.4522
2023-05-19T07:47:53.169Z,11.7163
2023-05-19T07:48:56.492Z,11.9299
2023-05-19T07:49:59.212Z,12.0947
2023-05-19T07:51:01.897Z,12.2306
2023-05-19T07:52:04.940Z,12.1987
2023-05-19T07:54:06.742Z,12.4539
2023-05-19T07:55:09.474Z,12.7428
2023-05-19T07:56:11.590Z,12.9131
2023-05-19T07:57:14.298Z,12.8894
2023-05-19T07:58:16.421Z,13.1252
2023-05-19T07:59:19.139Z,13.0367
2023-05-19T08:00:21.240Z,13.1620
2023-05-19T08:01:24.080Z,13.1029
2023-05-19T08:03:28.185Z,13.0648
2023-05-19T08:06:34.286Z,12.8818
2023-05-19T08:07:36.374Z,12.6006
2023-05-19T08:08:39.152Z,12.4455
2023-05-19T08:09:41.831Z,12.4847
2023-05-19T08:10:43.914Z,12.3499
2023-05-19T08:11:45.955Z,12.1302
2023-05-19T08:14:53.055Z,12.0563
2023-05-19T08:15:55.881Z,12.1510
2023-05-19T08:16:58.562Z,12.1308
2023-05-19T08:18:01.359Z,12.2786
2023-05-19T08:19:03.448Z,12.3926
2023-05-19T08:20:06.105Z,12.4022
2023-05-19T08:21:08.752Z,12.5219
2023-05-19T08:22:10.800Z,12.3871
2023-05-19T08:23:12.871Z,12.4824
2023-05-19T08:24:15.558Z,12.5120
2023-05-19T08:25:18.212Z,12.5784
2023-05-19T08:46:04.072Z,12.6663
2023-05-19T08:47:06.277Z,12.7297
2023-05-19T08:48:08.504Z,12.6708
2023-05-19T08:49:10.562Z,12.7947
2023-05-19T08:50:12.707Z,12.9521
2023-05-19T08:51:14.828Z,13.1356
2023-05-19T08:52:16.933Z,13.1216
2023-05-19T08:53:32.539Z,13.1095
2023-05-19T08:59:30.810Z,14.0790
2023-05-19T09:00:33.179Z,14.2432
2023-05-19T09:21:12.728Z,14.0046
2023-05-19T09:22:14.902Z,14.0664
2023-05-19T09:23:17.045Z,13.9418
2023-05-19T09:24:19.070Z,13.8703
2023-05-19T09:25:21.205Z,13.6126
2023-05-19T09:26:23.328Z,13.3574
2023-05-19T09:27:25.455Z,13.4736
2023-05-19T09:28:27.630Z,13.4483
2023-05-19T09:29:29.711Z,13.3298
2023-05-19T09:30:31.804Z,13.3722
2023-05-19T09:31:33.926Z,13.2419
2023-05-19T09:32:36.060Z,13.1978
2023-05-19T09:33:38.168Z,13.1751
2023-05-19T09:34:40.246Z,13.1097
2023-05-19T09:35:42.358Z,13.0199
2023-05-19T09:36:44.588Z,12.9245
2023-05-19T09:37:46.689Z,13.0309
2023-05-19T09:38:48.936Z,13.1249
2023-05-19T09:39:51.082Z,13.3734
2023-05-19T09:40:53.151Z,13.4011
2023-05-19T09:41:55.249Z,13.6231
2023-05-19T09:42:57.404Z,13.9180
2023-05-19T09:43:59.610Z,13.8479
2023-05-19T09:45:01.679Z,14.1087
2023-05-19T09:46:03.933Z,14.2479
2023-05-19T09:47:06.084Z,14.3620
2023-05-19T09:48:08.263Z,14.5418
2023-05-19T09:49:10.328Z,14.4624
2023-05-19T09:50:12.444Z,14.5974
2023-05-19T09:51:14.495Z,14.7601
2023-05-19T09:52:16.537Z,14.9165
2023-05-19T09:53:18.636Z,14.8587
2023-05-19T09:54:20.712Z,14.8052
2023-05-19T09:55:22.772Z,14.9734
2023-05-19T09:56:24.857Z,14.7654
2023-05-19T09:57:26.905Z,14.8685
2023-05-19T09:58:28.967Z,14.8339
2023-05-19T09:59:33.351Z,14.7422
2023-05-19T10:00:33.349Z,14.8960
2023-05-19T10:01:35.659Z,14.9524
2023-05-19T10:02:37.781Z,14.7439
2023-05-19T10:03:39.900Z,14.6225
2023-05-19T10:04:42.008Z,14.8366
2023-05-19T10:05:44.064Z,15.0571
2023-05-19T10:06:46.129Z,15.2326
2023-05-19T10:07:48.256Z,15.4493
2023-05-19T10:08:50.399Z,15.6215
2023-05-19T10:09:52.478Z,15.7331
2023-05-19T10:10:54.602Z,15.7991
2023-05-19T10:11:56.709Z,15.7170
2023-05-19T10:12:58.896Z,15.7135
2023-05-19T10:14:00.937Z,15.6156
2023-05-19T10:15:03.029Z,15.5665
2023-05-19T10:16:05.156Z,15.7477
2023-05-19T10:17:07.359Z,15.9422
2023-05-19T10:18:09.716Z,15.6981
2023-05-19T10:19:11.859Z,15.6600
2023-05-19T10:20:13.938Z,15.5792
2023-05-19T10:21:16.028Z,15.3029
2023-05-19T10:22:18.120Z,14.8760
2023-05-19T10:23:20.289Z,15.0561
2023-05-19T10:24:23.162Z,15.1700
2023-05-19T10:25:25.491Z,15.2691
2023-05-19T10:26:27.601Z,15.2829
2023-05-19T10:27:29.683Z,15.3401
2023-05-19T10:28:31.784Z,15.1277
2023-05-19T10:29:33.912Z,15.2792
2023-05-19T10:30:35.967Z,15.2667
2023-05-19T10:31:38.089Z,15.2327
2023-05-19T10:32:40.313Z,15.1146
2023-05-19T10:33:42.405Z,15.0163
2023-05-19T10:34:44.561Z,15.2516
2023-05-19T10:35:47.255Z,15.0960
2023-05-19T10:36:46.792Z,15.1027
2023-05-19T10:37:48.907Z,15.0373
2023-05-19T10:38:50.928Z,15.0303
2023-05-19T10:39:53.029Z,14.8876
2023-05-19T10:40:55.113Z,14.7971
2023-05-19T10:41:57.203Z,14.7574
2023-05-19T10:42:59.257Z,14.7520
2023-05-19T10:44:01.625Z,14.8206
2023-05-19T10:45:03.744Z,14.9405
2023-05-19T10:46:05.829Z,15.1919
2023-05-19T10:47:07.960Z,15.3976
2023-05-19T10:48:10.140Z,15.5266
2023-05-19T10:49:12.214Z,15.5318
2023-05-19T10:50:14.471Z,15.3424
2023-05-19T10:51:16.759Z,15.4602
2023-05-19T10:52:18.891Z,15.5250
2023-05-19T10:53:20.991Z,15.5648
2023-05-19T10:54:23.174Z,15.5483
2023-05-19T10:55:25.317Z,15.4570
2023-05-19T10:56:28.196Z,15.6325
2023-05-19T10:58:29.358Z,15.8610
2023-05-19T10:59:31.441Z,15.9112
2023-05-19T11:00:33.593Z,16.1587
2023-05-19T11:09:51.212Z,15.5267
2023-05-19T11:10:53.298Z,15.4555
2023-05-19T11:11:55.365Z,15.5694
2023-05-19T11:14:00.075Z,15.5023
2023-05-19T11:15:02.158Z,15.6372
2023-05-19T11:16:04.226Z,15.8770
2023-05-19T11:17:06.429Z,15.7478
2023-05-19T11:18:08.509Z,15.7103
2023-05-19T11:19:10.728Z,15.9190
2023-05-19T11:20:13.014Z,16.1795
2023-05-19T11:21:15.111Z,16.4930
2023-05-19T11:22:17.476Z,16.7098
2023-05-19T11:23:19.661Z,16.8715
2023-05-19T11:24:21.786Z,16.7395
2023-05-19T11:25:23.953Z,16.6233
2023-05-19T11:26:26.061Z,16.5061
2023-05-19T11:27:28.306Z,16.5450
2023-05-19T11:28:30.321Z,16.5185
2023-05-19T11:29:32.867Z,16.1245
2023-05-19T11:30:33.509Z,15.9318
2023-05-19T11:31:35.657Z,15.5259
2023-05-19T11:32:37.797Z,15.3986
2023-05-19T11:33:39.858Z,15.3274
2023-05-19T11:34:41.904Z,15.5207
2023-05-19T11:35:43.960Z,15.4737
2023-05-19T11:36:46.117Z,15.5797
2023-05-19T11:37:48.173Z,15.9139
2023-05-19T11:38:50.234Z,16.1139
2023-05-19T11:39:52.338Z,16.2270
2023-05-19T11:40:54.378Z,16.2772
2023-05-19T11:41:56.457Z,16.5380
2023-05-19T11:42:58.506Z,17.2108
2023-05-19T11:44:00.571Z,17.4403
2023-05-19T11:45:02.591Z,17.6317
2023-05-19T11:46:04.679Z,17.8032
2023-05-19T11:47:06.728Z,17.8387
2023-05-19T11:48:08.906Z,18.0069
2023-05-19T11:49:10.948Z,17.8780
2023-05-19T11:50:13.122Z,17.9686
2023-05-19T11:51:15.153Z,17.9488
2023-05-19T11:52:17.252Z,18.1052
2023-05-19T11:53:19.324Z,18.0893
2023-05-19T11:54:21.392Z,18.2593
2023-05-19T11:55:23.519Z,18.1120
2023-05-19T11:56:25.665Z,18.0565
2023-05-19T11:57:27.725Z,18.3922
2023-05-19T11:59:33.492Z,18.4007
2023-05-19T12:00:34.712Z,18.6000
2023-05-19T12:01:36.794Z,18.8708
2023-05-19T12:02:38.968Z,19.1263
2023-05-19T12:03:41.176Z,19.3717
2023-05-19T12:04:43.322Z,19.7192
2023-05-19T12:05:45.886Z,19.7545
2023-05-19T12:06:45.629Z,19.3595
2023-05-19T12:07:47.644Z,19.6928
2023-05-19T12:08:49.663Z,19.5500
2023-05-19T12:09:51.701Z,19.3964
2023-05-19T12:10:53.669Z,19.5237
2023-05-19T12:11:55.706Z,19.5398
2023-05-19T12:12:57.682Z,19.2092
2023-05-19T12:13:59.690Z,19.0641
2023-05-19T12:15:01.656Z,18.9534
2023-05-19T12:16:03.753Z,18.6488
2023-05-19T12:17:05.792Z,18.3820
2023-05-19T12:18:07.886Z,18.4896
2023-05-19T12:19:09.996Z,18.2598
2023-05-19T12:20:12.121Z,18.1881
2023-05-19T12:21:14.497Z,17.8241
2023-05-19T12:22:16.660Z,17.8453
2023-05-19T12:23:18.654Z,18.2868
2023-05-19T12:24:20.702Z,18.4501
2023-05-19T12:25:22.714Z,18.5139
2023-05-19T12:26:24.749Z,18.7111
2023-05-19T12:27:26.817Z,18.7046
2023-05-19T12:28:28.888Z,18.9712
2023-05-19T12:29:30.929Z,19.0879
2023-05-19T12:30:33.934Z,19.3496
2023-05-19T12:31:34.015Z,19.4053
2023-05-19T12:32:36.174Z,19.1651
2023-05-19T12:33:38.208Z,19.3000
2023-05-19T12:34:40.277Z,19.5197
2023-05-19T12:35:42.350Z,19.4035
2023-05-19T12:36:44.376Z,19.4793
2023-05-19T12:37:46.473Z,19.5624
2023-05-19T12:38:48.534Z,19.8140
2023-05-19T12:39:50.865Z,19.7897
2023-05-19T12:40:52.912Z,19.7578
2023-05-19T12:41:54.911Z,19.3398
2023-05-19T12:42:56.909Z,19.1833
2023-05-19T12:43:58.902Z,18.7823
2023-05-19T12:45:02.297Z,18.5405
2023-05-19T12:46:02.318Z,18.2517
2023-05-19T12:50:10.102Z,17.9904
2023-05-19T12:51:12.348Z,17.6232
2023-05-19T12:52:14.354Z,17.6284
2023-05-19T12:53:16.438Z,17.6318
2023-05-19T12:54:18.403Z,17.4969
2023-05-19T12:55:20.845Z,17.3985
2023-05-19T12:56:22.898Z,17.5687
2023-05-19T12:57:24.993Z,17.6958
2023-05-19T12:58:27.379Z,17.8489
2023-05-19T12:59:38.351Z,17.5189
2023-05-19T13:00:31.796Z,17.2562
2023-05-19T13:01:34.250Z,17.6842
2023-05-19T13:02:36.492Z,17.6359
2023-05-19T13:03:38.760Z,17.8937
2023-05-19T13:04:40.848Z,18.0955
2023-05-19T13:05:42.885Z,18.1084
2023-05-19T13:06:44.987Z,18.1795
2023-05-19T13:07:46.996Z,18.1296
2023-05-19T13:08:49.044Z,18.2526
2023-05-19T13:09:51.097Z,18.2736
2023-05-19T13:10:53.138Z,18.4118
2023-05-19T13:11:55.334Z,17.8276
2023-05-19T13:12:57.372Z,18.0067
2023-05-19T13:13:59.524Z,17.6986
2023-05-19T13:15:01.550Z,17.1218
2023-05-19T13:16:03.650Z,16.6664
2023-05-19T13:17:05.679Z,16.0919
2023-05-19T13:18:07.791Z,15.8996
2023-05-19T13:19:23.877Z,15.7603
2023-05-19T13:20:11.923Z,15.1656
2023-05-19T13:21:14.217Z,15.3277
2023-05-19T13:22:16.254Z,15.2516
2023-05-19T13:23:18.341Z,15.2162
2023-05-19T13:24:20.376Z,15.2815
2023-05-19T13:25:22.524Z,15.0450
2023-05-19T13:26:24.712Z,15.2148
2023-05-19T13:27:26.759Z,15.2591
2023-05-19T13:28:28.917Z,15.3925
2023-05-19T13:29:31.000Z,15.5347
2023-05-19T13:30:33.342Z,15.4696
2023-05-19T13:31:35.989Z,15.6336
2023-05-19T13:32:38.186Z,15.7429
2023-05-19T13:33:40.242Z,15.9060
2023-05-19T13:34:42.459Z,16.0310
2023-05-19T13:35:44.545Z,15.7891
2023-05-19T13:36:46.943Z,15.4911
2023-05-19T13:37:49.089Z,15.4019
2023-05-19T13:38:51.152Z,15.1970
2023-05-19T13:39:53.321Z,15.1592
2023-05-19T13:40:55.381Z,14.8993
2023-05-19T13:41:57.452Z,15.0595
2023-05-19T13:42:59.544Z,15.0827
2023-05-19T13:44:01.631Z,15.2749
2023-05-19T13:45:03.764Z,15.0978
2023-05-19T13:46:05.923Z,15.1061
2023-05-19T13:47:08.105Z,15.2284
2023-05-19T13:48:10.344Z,15.2627
2023-05-19T13:49:12.466Z,15.3073
2023-05-19T13:50:14.520Z,15.3708
2023-05-19T13:51:16.696Z,15.3586
2023-05-19T13:52:18.759Z,15.5880
2023-05-19T13:53:20.915Z,15.6390
2023-05-19T13:54:22.998Z,15.7986
2023-05-19T13:55:25.088Z,15.8162
2023-05-19T13:56:27.253Z,15.8956
2023-05-19T13:57:29.352Z,16.0080
2023-05-19T13:58:31.421Z,15.8909
2023-05-19T13:59:33.519Z,15.6310
2023-05-19T14:00:35.799Z,15.6350
2023-05-19T14:01:40.429Z,15.4334
2023-05-19T14:02:40.946Z,15.4762
2023-05-19T14:03:43.240Z,15.5512
2023-05-19T14:04:45.530Z,15.4467
2023-05-19T14:05:47.661Z,15.3003
2023-05-19T14:06:49.958Z,15.0415
2023-05-19T14:07:52.139Z,15.0352
2023-05-19T14:08:54.262Z,14.8252
2023-05-19T14:09:56.418Z,14.6391
2023-05-19T14:10:58.642Z,14.5393
2023-05-19T14:12:00.855Z,14.5350
2023-05-19T14:20:17.513Z,13.9062
2023-05-19T14:21:19.692Z,13.9172
2023-05-19T14:22:21.895Z,13.9101
2023-05-19T14:23:24.144Z,13.9382
2023-05-19T14:24:26.340Z,14.0005
2023-05-19T14:25:28.567Z,14.0925
2023-05-19T14:26:30.767Z,14.1695
2023-05-19T14:27:33.187Z,14.1932
2023-05-19T14:28:35.523Z,14.2775
2023-05-19T14:29:38.052Z,14.3896
2023-05-19T14:30:40.513Z,14.3727
2023-05-19T14:31:42.728Z,14.1652
2023-05-19T14:32:44.973Z,14.0701
2023-05-19T14:33:47.115Z,14.0631
2023-05-19T14:34:49.306Z,14.0476
2023-05-19T14:35:51.522Z,14.1096
2023-05-19T14:36:53.846Z,14.1157
2023-05-19T14:37:56.106Z,14.0365
2023-05-19T14:38:58.364Z,14.0426
2023-05-19T14:40:00.608Z,14.0419
2023-05-19T14:41:02.924Z,14.0716
2023-05-19T14:42:05.379Z,14.0431
2023-05-19T14:43:07.665Z,14.0185
2023-05-19T14:44:09.999Z,14.0883
2023-05-19T14:46:14.329Z,14.1433
2023-05-19T14:47:16.620Z,14.1553
2023-05-19T14:48:18.862Z,14.2144
2023-05-19T14:49:21.284Z,14.3329
2023-05-19T14:50:23.509Z,14.3684
2023-05-19T14:51:25.778Z,14.4251
2023-05-19T14:52:28.023Z,14.6306
2023-05-19T14:53:30.367Z,14.6091
2023-05-19T14:54:32.568Z,14.5888
2023-05-19T14:55:34.877Z,14.5224
2023-05-19T14:56:37.043Z,14.5317
2023-05-19T14:57:39.338Z,14.3821
2023-05-19T14:58:41.495Z,14.3866
2023-05-19T14:59:43.672Z,14.4058
2023-05-19T15:00:45.907Z,14.3596
2023-05-19T15:01:48.180Z,14.2360
2023-05-19T15:02:50.513Z,14.2210
2023-05-19T15:03:52.821Z,14.2276
2023-05-19T15:04:55.117Z,14.2583
2023-05-19T15:05:57.319Z,14.2103
2023-05-19T15:08:02.271Z,14.3843
2023-05-19T15:09:02.852Z,14.3854
2023-05-19T15:10:05.047Z,14.4299
2023-05-19T15:11:07.247Z,14.5076
2023-05-19T15:12:09.452Z,14.5864
2023-05-19T15:13:11.652Z,14.6727
2023-05-19T15:14:11.865Z,14.7493
2023-05-19T15:15:14.070Z,14.7481
2023-05-19T15:16:17.996Z,14.7225
2023-05-19T15:17:18.625Z,14.6595
2023-05-19T15:18:20.868Z,14.6639
2023-05-19T15:19:23.213Z,14.6002
2023-05-19T15:20:26.964Z,14.4682
2023-05-19T15:21:27.746Z,14.3915
2023-05-19T15:22:30.021Z,14.1868
2023-05-19T15:23:32.350Z,14.1324
2023-05-19T15:24:52.871Z,13.9415
2023-05-19T15:30:43.850Z,13.1027
2023-05-19T15:31:46.661Z,13.0223
2023-05-19T15:32:49.540Z,12.8178
2023-05-19T15:33:52.315Z,12.7306
2023-05-19T15:34:54.474Z,12.7803
2023-05-19T15:35:56.650Z,12.7036
2023-05-19T15:36:59.483Z,12.7396
2023-05-19T15:45:13.129Z,12.7447
2023-05-19T15:50:25.135Z,12.9117
2023-05-19T15:51:28.123Z,12.8606
2023-05-19T15:52:28.324Z,12.8086
2023-05-19T15:53:30.534Z,12.9156
2023-05-19T15:55:36.160Z,12.9533
2023-05-19T15:57:37.719Z,13.1993
2023-05-19T15:58:39.920Z,13.1840
2023-05-19T15:59:42.118Z,13.2784
2023-05-19T16:08:03.255Z,13.7469
2023-05-19T16:09:03.351Z,13.8096
2023-05-19T16:11:06.068Z,13.8502
2023-05-19T16:12:08.837Z,13.7574
2023-05-19T16:13:11.025Z,13.7860
2023-05-19T16:14:13.843Z,13.8791
2023-05-19T16:15:16.220Z,13.9378
2023-05-19T16:16:21.067Z,13.9381
2023-05-19T16:33:55.901Z,14.2156
2023-05-19T16:35:57.406Z,14.0195
2023-05-19T16:37:00.350Z,13.9687
2023-05-19T16:38:03.272Z,13.9851
2023-05-19T16:39:06.179Z,14.1283
2023-05-19T16:40:08.400Z,14.0612
2023-05-19T16:41:11.254Z,13.8716
2023-05-19T16:42:10.599Z,13.6880
2023-05-19T16:43:13.753Z,13.7362
2023-05-19T16:44:15.143Z,13.7333
2023-05-19T16:47:19.862Z,13.7044
2023-05-19T16:48:20.009Z,13.7001
2023-05-19T16:49:22.167Z,13.6217
2023-05-19T16:50:25.029Z,13.5804
2023-05-19T16:55:29.958Z,13.2729
2023-05-19T16:56:32.703Z,13.2492
2023-05-19T16:57:35.452Z,13.1370
2023-05-19T16:58:38.258Z,13.1498
2023-05-19T16:59:41.277Z,13.1687
2023-05-19T17:02:46.647Z,12.9925
2023-05-19T17:06:54.094Z,12.7485
2023-05-19T17:12:03.991Z,12.4802
2023-05-19T17:13:06.210Z,12.4507
2023-05-19T17:14:09.280Z,12.4449
2023-05-19T17:26:34.537Z,12.1375
2023-05-19T17:27:33.841Z,12.1924
2023-05-19T17:28:35.986Z,12.1691
2023-05-19T17:29:38.342Z,12.2285
2023-05-19T17:30:41.127Z,12.2025
2023-05-19T17:31:44.629Z,12.0783
2023-05-19T17:44:09.965Z,11.9436
2023-05-19T17:47:10.749Z,11.8235
2023-05-19T17:49:12.616Z,11.9504
2023-05-19T17:54:22.496Z,11.9500
2023-05-19T17:55:22.634Z,11.8408
2023-05-19T17:58:27.301Z,11.8128
2023-05-19T18:04:34.851Z,11.7148
2023-05-19T18:05:37.851Z,11.7213
2023-05-19T18:10:48.137Z,11.6429
2023-05-19T18:12:50.067Z,11.6481
2023-05-19T18:13:52.862Z,11.6456
2023-05-19T18:16:57.813Z,11.5587
2023-05-19T18:17:58.010Z,11.5454
2023-05-19T18:20:00.278Z,11.4862
2023-05-19T18:21:03.191Z,11.5732
2023-05-19T18:34:28.016Z,11.3007
2023-05-19T18:35:28.007Z,11.3279
2023-05-19T18:36:30.402Z,11.2596